Time;durP1;ratioP1;P1;durP2;ratioP2;P2;SDS_P1;SDS_P2;PMS_P1;PMS_P2;Temp;Humidity;BMP_temperature;BMP_pressure;BME280_temperature;BME280_humidity;BME280_pressure;Samples;Min_cycle;Max_cycle;Signal;HPM_P1;HPM_P2
2024/04/17 00:00:12;;;;;;;6.20;2.67;;;8.50;99.90;;;;;;2258259;26;20002;-71
2024/04/17 00:01:13;;;;;;;11.23;3.05;;;8.50;99.90;;;;;;2256657;26;20020;-71
2024/04/17 00:02:16;;;;;;;6.80;2.80;;;8.50;99.90;;;;;;2259497;26;20083;-71
2024/04/17 00:03:17;;;;;;;10.25;2.97;;;8.50;99.90;;;;;;2259081;26;20343;-71
2024/04/17 00:04:17;;;;;;;5.28;2.83;;;8.40;99.90;;;;;;2259561;26;20006;-71
2024/04/17 00:05:18;;;;;;;10.15;3.50;;;8.40;99.90;;;;;;2255958;26;19998;-71
2024/04/17 00:06:18;;;;;;;6.25;2.92;;;8.40;99.90;;;;;;2259702;26;20662;-71
2024/04/17 00:07:19;;;;;;;9.75;3.72;;;8.40;99.90;;;;;;2260616;26;20588;-71
2024/04/17 00:08:19;;;;;;;6.85;3.13;;;8.30;99.90;;;;;;2243732;26;20564;-71
2024/04/17 00:09:23;;;;;;;7.28;3.05;;;8.30;99.90;;;;;;2246958;26;20072;-71
2024/04/17 00:10:24;;;;;;;6.53;3.15;;;8.30;99.90;;;;;;2246638;26;20409;-71
2024/04/17 00:11:24;;;;;;;6.72;3.05;;;8.30;99.90;;;;;;2241713;26;20012;-71
2024/04/17 00:12:25;;;;;;;12.20;3.65;;;8.30;99.90;;;;;;2262466;26;20006;-71
2024/04/17 00:13:25;;;;;;;9.90;3.60;;;8.20;99.90;;;;;;2259048;26;20017;-71
2024/04/17 00:14:26;;;;;;;10.25;3.60;;;8.20;99.90;;;;;;2261938;26;20010;-71
2024/04/17 00:15:26;;;;;;;11.15;3.47;;;8.20;99.90;;;;;;2258692;26;20012;-71
2024/04/17 00:16:27;;;;;;;7.32;3.58;;;8.20;99.90;;;;;;2261209;26;20002;-71
2024/04/17 00:17:27;;;;;;;11.23;3.42;;;8.20;99.90;;;;;;2257651;26;19999;-71
2024/04/17 00:18:28;;;;;;;10.23;3.30;;;8.10;99.90;;;;;;2260272;26;20072;-71
2024/04/17 00:19:28;;;;;;;6.95;3.40;;;8.10;99.90;;;;;;2257807;26;20002;-71
2024/04/17 00:20:29;;;;;;;11.02;3.13;;;8.10;99.90;;;;;;2260720;26;20461;-70
2024/04/17 00:21:29;;;;;;;9.68;3.15;;;8.10;99.90;;;;;;2261243;26;20497;-70
2024/04/17 00:22:30;;;;;;;6.88;2.53;;;8.10;99.90;;;;;;2264775;26;20010;-71
2024/04/17 00:23:30;;;;;;;8.52;3.00;;;8.10;99.90;;;;;;2262702;26;20010;-71
2024/04/17 00:24:31;;;;;;;10.10;3.15;;;8.00;99.90;;;;;;2259542;26;20006;-71
2024/04/17 00:25:31;;;;;;;11.20;3.00;;;8.10;99.90;;;;;;2258899;26;19999;-71
2024/04/17 00:26:32;;;;;;;6.93;2.83;;;8.00;99.90;;;;;;2249203;26;20011;-71
2024/04/17 00:27:32;;;;;;;7.97;3.10;;;8.00;99.90;;;;;;2250340;26;20483;-71
2024/04/17 00:28:33;;;;;;;7.22;3.70;;;8.00;99.90;;;;;;2246105;26;20000;-71
2024/04/17 00:29:35;;;;;;;8.45;2.85;;;8.00;99.90;;;;;;2243573;26;20007;-71
2024/04/17 00:30:35;;;;;;;8.30;2.95;;;8.00;99.90;;;;;;2247885;26;20075;-71
2024/04/17 00:31:36;;;;;;;6.93;2.90;;;7.90;99.90;;;;;;2241656;26;20019;-71
2024/04/17 00:32:37;;;;;;;9.02;3.63;;;7.90;99.90;;;;;;2245418;26;20002;-71
2024/04/17 00:33:38;;;;;;;11.38;3.55;;;7.90;99.90;;;;;;2242460;26;20003;-71
2024/04/17 00:34:38;;;;;;;9.45;3.78;;;7.90;99.90;;;;;;2246404;26;20001;-71
2024/04/17 00:35:39;;;;;;;6.55;2.70;;;7.90;99.90;;;;;;2244400;26;19998;-71
2024/04/17 00:36:39;;;;;;;8.05;2.65;;;7.90;99.90;;;;;;2245653;26;20011;-71
2024/04/17 00:37:40;;;;;;;8.90;3.30;;;7.80;99.90;;;;;;2243933;26;20011;-71
2024/04/17 00:38:40;;;;;;;7.78;2.88;;;7.80;99.90;;;;;;2245307;26;20056;-71
2024/04/17 00:39:41;;;;;;;9.85;3.53;;;7.80;99.90;;;;;;2242066;26;20078;-71
2024/04/17 00:40:41;;;;;;;9.23;2.88;;;7.80;99.90;;;;;;2245056;26;20018;-71
2024/04/17 00:41:42;;;;;;;8.88;3.17;;;7.80;99.90;;;;;;2242464;26;20378;-71
2024/04/17 00:42:42;;;;;;;9.95;3.53;;;7.70;99.90;;;;;;2244580;26;20010;-71
2024/04/17 00:43:43;;;;;;;8.75;3.30;;;7.70;99.90;;;;;;2243892;26;20418;-71
2024/04/17 00:44:44;;;;;;;10.48;3.53;;;7.70;99.90;;;;;;2241593;26;20000;-70
2024/04/17 00:45:46;;;;;;;4.93;2.47;;;7.70;99.90;;;;;;2228072;26;20004;-69
2024/04/17 00:46:47;;;;;;;4.00;2.47;;;7.60;99.90;;;;;;2250080;26;20524;-69
2024/04/17 00:47:48;;;;;;;6.95;3.03;;;7.60;99.90;;;;;;2250566;26;19999;-68
2024/04/17 00:48:48;;;;;;;5.93;3.20;;;7.60;99.90;;;;;;2232673;26;20004;-68
2024/04/17 00:49:50;;;;;;;8.02;2.97;;;7.60;99.90;;;;;;2244507;26;20013;-69
2024/04/17 00:50:53;;;;;;;11.73;3.40;;;7.60;99.90;;;;;;2247149;26;20010;-69
2024/04/17 00:51:55;;;;;;;8.63;3.25;;;7.60;99.90;;;;;;2230789;26;20085;-69
2024/04/17 00:52:56;;;;;;;7.38;2.67;;;7.60;99.90;;;;;;2244605;26;20071;-69
2024/04/17 00:53:57;;;;;;;7.75;3.30;;;7.60;99.90;;;;;;2245988;26;20055;-69
2024/04/17 00:55:00;;;;;;;8.27;2.78;;;7.50;99.90;;;;;;2247254;26;19999;-70
2024/04/17 00:56:01;;;;;;;9.35;3.05;;;7.50;99.90;;;;;;2243419;26;20003;-69
2024/04/17 00:57:03;;;;;;;9.57;2.92;;;7.50;99.90;;;;;;2242658;26;20009;-69
2024/04/17 00:58:06;;;;;;;8.10;2.70;;;7.50;99.90;;;;;;2242001;26;20002;-69
2024/04/17 00:59:08;;;;;;;9.38;3.22;;;7.50;99.90;;;;;;2239733;26;20013;-69
2024/04/17 01:00:10;;;;;;;9.48;3.22;;;7.50;99.90;;;;;;2229101;26;19999;-69
2024/04/17 01:01:10;;;;;;;5.75;2.70;;;7.40;99.90;;;;;;2250012;26;20010;-69
2024/04/17 01:02:14;;;;;;;7.60;3.10;;;7.40;99.90;;;;;;2243135;26;20093;-69
2024/04/17 01:03:15;;;;;;;10.48;3.30;;;7.40;99.90;;;;;;2244612;26;20011;-69
2024/04/17 01:04:15;;;;;;;9.55;3.25;;;7.40;99.90;;;;;;2243534;26;20537;-70
2024/04/17 01:05:16;;;;;;;9.05;3.00;;;7.40;99.90;;;;;;2244283;26;20434;-68
2024/04/17 01:06:17;;;;;;;9.57;3.50;;;7.40;99.90;;;;;;2242014;26;20007;-69
2024/04/17 01:07:18;;;;;;;8.05;3.03;;;7.30;99.90;;;;;;2242283;26;20658;-68
2024/04/17 01:08:19;;;;;;;9.18;2.90;;;7.30;99.90;;;;;;2242330;26;20362;-69
2024/04/17 01:09:21;;;;;;;9.02;2.80;;;7.30;99.90;;;;;;2245126;26;20015;-69
2024/04/17 01:10:22;;;;;;;9.07;3.00;;;7.30;99.90;;;;;;2245260;26;20432;-68
2024/04/17 01:11:22;;;;;;;8.65;2.53;;;7.30;99.90;;;;;;2245647;26;20000;-69
2024/04/17 01:12:23;;;;;;;7.47;2.90;;;7.30;99.90;;;;;;2243331;26;20007;-69
2024/04/17 01:13:24;;;;;;;11.55;3.03;;;7.20;99.90;;;;;;2246242;26;20071;-69
2024/04/17 01:14:24;;;;;;;6.00;3.22;;;7.20;99.90;;;;;;2239143;26;20000;-69
2024/04/17 01:15:25;;;;;;;11.05;2.90;;;7.20;99.90;;;;;;2245310;26;20028;-68
2024/04/17 01:16:25;;;;;;;9.27;3.78;;;7.20;99.90;;;;;;2243742;26;20035;-68
2024/04/17 01:17:26;;;;;;;8.65;3.58;;;7.20;99.90;;;;;;2244508;26;21399;-69
2024/04/17 01:18:27;;;;;;;8.82;2.92;;;7.20;99.90;;;;;;2240575;26;19999;-69
2024/04/17 01:19:30;;;;;;;10.15;3.00;;;7.20;99.90;;;;;;2241766;26;19999;-68
2024/04/17 01:20:30;;;;;;;7.05;3.15;;;7.10;99.90;;;;;;2245594;26;20002;-69
2024/04/17 01:21:32;;;;;;;9.88;3.15;;;7.10;99.90;;;;;;2245357;26;20000;-69
2024/04/17 01:22:33;;;;;;;8.23;2.13;;;7.10;99.90;;;;;;2243261;26;20027;-69
2024/04/17 01:23:33;;;;;;;7.63;2.80;;;7.10;99.90;;;;;;2243304;26;20003;-69
2024/04/17 01:24:34;;;;;;;10.38;2.97;;;7.10;99.90;;;;;;2241979;26;20009;-69
2024/04/17 01:25:34;;;;;;;8.68;3.42;;;7.10;99.90;;;;;;2248275;26;20006;-68
2024/04/17 01:26:35;;;;;;;7.60;2.83;;;7.00;99.90;;;;;;2251604;26;20009;-68
2024/04/17 01:27:35;;;;;;;8.07;2.80;;;7.10;99.90;;;;;;2259336;26;20002;-69
2024/04/17 01:28:36;;;;;;;8.30;2.78;;;7.00;99.90;;;;;;2262147;26;20060;-68
2024/04/17 01:29:36;;;;;;;8.30;2.60;;;7.00;99.90;;;;;;2260091;26;20038;-68
2024/04/17 01:30:37;;;;;;;9.60;3.30;;;7.00;99.90;;;;;;2261245;26;20002;-69
2024/04/17 01:31:38;;;;;;;10.50;3.03;;;7.00;99.90;;;;;;2244910;26;20030;-69
2024/04/17 01:32:38;;;;;;;9.18;3.10;;;7.00;99.90;;;;;;2245447;26;20327;-68
2024/04/17 01:33:39;;;;;;;5.88;2.53;;;6.90;99.90;;;;;;2259911;26;19999;-69
2024/04/17 01:34:39;;;;;;;13.05;3.47;;;6.90;99.90;;;;;;2259405;26;20005;-69
2024/04/17 01:35:40;;;;;;;12.60;3.53;;;6.90;99.90;;;;;;2259429;26;20335;-69
2024/04/17 01:36:41;;;;;;;8.65;2.95;;;6.90;99.90;;;;;;2260093;26;20006;-68
2024/04/17 01:37:41;;;;;;;8.85;2.88;;;6.90;99.90;;;;;;2259521;26;19998;-68
2024/04/17 01:38:42;;;;;;;6.13;3.10;;;6.90;99.90;;;;;;2260484;26;20035;-69
2024/04/17 01:39:42;;;;;;;9.20;3.17;;;6.90;99.90;;;;;;2258303;26;20010;-69
2024/04/17 01:40:43;;;;;;;7.47;2.75;;;6.80;99.90;;;;;;2243589;26;20083;-68
2024/04/17 01:41:43;;;;;;;8.95;3.20;;;6.80;99.90;;;;;;2245726;26;20339;-68
2024/04/17 01:42:44;;;;;;;9.02;2.70;;;6.80;99.90;;;;;;2256189;26;20007;-68
2024/04/17 01:43:44;;;;;;;7.53;3.05;;;6.80;99.90;;;;;;2259618;26;20455;-68
2024/04/17 01:44:45;;;;;;;8.65;3.13;;;6.80;99.90;;;;;;2258359;26;20405;-68
2024/04/17 01:45:47;;;;;;;9.70;2.95;;;6.80;99.90;;;;;;2242536;26;20032;-69
2024/04/17 01:46:47;;;;;;;8.60;3.03;;;6.80;99.90;;;;;;2246671;26;20011;-69
2024/04/17 01:47:48;;;;;;;6.40;2.80;;;6.70;99.90;;;;;;2259097;26;19998;-68
2024/04/17 01:48:48;;;;;;;8.98;2.63;;;6.80;99.90;;;;;;2246732;26;20010;-69
2024/04/17 01:49:49;;;;;;;6.78;2.67;;;6.70;99.90;;;;;;2250763;26;20006;-69
2024/04/17 01:50:50;;;;;;;8.40;2.70;;;6.70;99.90;;;;;;2261432;26;19999;-69
2024/04/17 01:51:51;;;;;;;7.95;2.80;;;6.70;99.90;;;;;;2261926;26;20068;-68
2024/04/17 01:52:51;;;;;;;11.68;3.67;;;6.70;99.90;;;;;;2259257;26;20712;-69
2024/04/17 01:53:52;;;;;;;6.45;2.50;;;6.70;99.90;;;;;;2259006;26;20003;-69
2024/04/17 01:54:52;;;;;;;7.60;2.70;;;6.70;99.90;;;;;;2266541;26;19999;-69
2024/04/17 01:55:54;;;;;;;12.93;3.88;;;6.60;99.90;;;;;;2260813;26;20003;-68
2024/04/17 01:56:54;;;;;;;6.57;2.95;;;6.70;99.90;;;;;;2261856;26;20012;-69
2024/04/17 01:57:55;;;;;;;8.68;2.70;;;6.60;99.90;;;;;;2261063;26;20013;-69
2024/04/17 01:58:55;;;;;;;8.82;2.97;;;6.60;99.90;;;;;;2260168;26;19998;-69
2024/04/17 01:59:56;;;;;;;9.80;2.83;;;6.60;99.90;;;;;;2260769;26;19999;-68
2024/04/17 02:00:56;;;;;;;7.60;2.35;;;6.60;99.90;;;;;;2261292;26;20041;-69
2024/04/17 02:01:57;;;;;;;8.25;2.85;;;6.60;99.90;;;;;;2260458;26;20013;-68
2024/04/17 02:02:57;;;;;;;9.32;3.30;;;6.50;99.90;;;;;;2260428;26;20002;-69
2024/04/17 02:03:58;;;;;;;8.43;3.00;;;6.50;99.90;;;;;;2263236;26;20002;-69
2024/04/17 02:04:58;;;;;;;8.00;2.90;;;6.50;99.90;;;;;;2258454;26;20005;-69
2024/04/17 02:05:59;;;;;;;7.53;2.88;;;6.50;99.90;;;;;;2252727;26;20049;-69
2024/04/17 02:06:59;;;;;;;8.88;2.38;;;6.50;99.90;;;;;;2235734;26;20011;-68
2024/04/17 02:08:00;;;;;;;5.03;2.40;;;6.40;99.90;;;;;;2246062;26;20425;-68
2024/04/17 02:09:00;;;;;;;5.75;2.40;;;6.40;99.90;;;;;;2260243;26;20014;-68
2024/04/17 02:10:01;;;;;;;9.55;2.95;;;6.40;99.90;;;;;;2260779;26;20098;-69
2024/04/17 02:11:03;;;;;;;11.50;2.72;;;6.40;99.90;;;;;;2259273;26;20073;-69
2024/04/17 02:12:04;;;;;;;5.85;2.20;;;6.40;99.90;;;;;;2260944;26;19998;-69
2024/04/17 02:13:05;;;;;;;4.70;2.20;;;6.40;99.90;;;;;;2261294;26;20021;-68
2024/04/17 02:14:05;;;;;;;6.78;3.00;;;6.40;99.90;;;;;;2261916;26;20335;-69
2024/04/17 02:15:06;;;;;;;7.53;2.83;;;6.40;99.90;;;;;;2262525;26;19998;-69
2024/04/17 02:16:07;;;;;;;8.00;2.83;;;6.40;99.90;;;;;;2259988;26;20006;-68
2024/04/17 02:17:07;;;;;;;7.22;2.72;;;6.40;99.90;;;;;;2259099;26;20013;-69
2024/04/17 02:18:08;;;;;;;7.57;2.58;;;6.30;99.90;;;;;;2262340;26;20048;-68
2024/04/17 02:19:08;;;;;;;14.27;3.00;;;6.30;99.90;;;;;;2260122;26;19999;-68
2024/04/17 02:20:09;;;;;;;11.88;3.42;;;6.30;99.90;;;;;;2250807;26;20359;-69
2024/04/17 02:21:09;;;;;;;6.38;3.35;;;6.30;99.90;;;;;;2249382;26;20043;-68
2024/04/17 02:22:10;;;;;;;11.15;3.03;;;6.30;99.90;;;;;;2259725;26;20003;-68
2024/04/17 02:23:10;;;;;;;7.57;2.63;;;6.30;99.90;;;;;;2245174;26;19999;-68
2024/04/17 02:24:11;;;;;;;8.68;2.90;;;6.30;99.90;;;;;;2242485;26;20014;-68
2024/04/17 02:25:11;;;;;;;7.57;2.95;;;6.20;99.90;;;;;;2262468;26;20039;-68
2024/04/17 02:26:12;;;;;;;9.10;2.35;;;6.30;99.90;;;;;;2257400;26;19998;-68
2024/04/17 02:27:12;;;;;;;7.40;2.58;;;6.20;99.90;;;;;;2259560;26;20010;-68
2024/04/17 02:28:13;;;;;;;10.32;2.75;;;6.20;99.90;;;;;;2259590;26;19998;-68
2024/04/17 02:29:13;;;;;;;9.48;2.85;;;6.20;99.90;;;;;;2256585;26;20013;-68
2024/04/17 02:30:14;;;;;;;7.72;2.95;;;6.20;99.90;;;;;;2249471;26;20338;-68
2024/04/17 02:31:14;;;;;;;12.88;3.40;;;6.20;99.90;;;;;;2251160;26;20013;-69
2024/04/17 02:32:15;;;;;;;10.02;2.75;;;6.20;99.90;;;;;;2261447;26;20009;-67
2024/04/17 02:33:16;;;;;;;11.77;3.58;;;6.20;99.90;;;;;;2241336;26;19995;-69
2024/04/17 02:34:16;;;;;;;11.02;2.90;;;6.20;99.90;;;;;;2246601;26;20024;-68
2024/04/17 02:35:17;;;;;;;13.30;4.20;;;6.20;99.90;;;;;;2256430;26;20013;-68
2024/04/17 02:36:17;;;;;;;5.88;2.60;;;6.10;99.90;;;;;;2257929;26;20013;-68
2024/04/17 02:37:18;;;;;;;9.93;3.10;;;6.10;99.90;;;;;;2261569;26;20394;-67
2024/04/17 02:38:18;;;;;;;8.13;2.83;;;6.10;99.90;;;;;;2259056;26;20003;-68
2024/04/17 02:39:20;;;;;;;9.55;3.20;;;6.10;99.90;;;;;;2261001;26;20558;-67
2024/04/17 02:40:20;;;;;;;9.43;3.30;;;6.10;99.90;;;;;;2261873;26;20090;-68
2024/04/17 02:41:21;;;;;;;9.15;2.90;;;6.10;99.90;;;;;;2260529;26;20017;-68
2024/04/17 02:42:21;;;;;;;9.18;2.90;;;6.00;99.90;;;;;;2257968;26;19995;-69
2024/04/17 02:43:22;;;;;;;7.93;2.97;;;6.00;99.90;;;;;;2260147;26;20006;-68
2024/04/17 02:44:22;;;;;;;7.55;3.03;;;6.00;99.90;;;;;;2259930;26;20039;-69
2024/04/17 02:45:23;;;;;;;6.28;3.45;;;6.00;99.90;;;;;;2256711;26;19999;-68
2024/04/17 02:46:23;;;;;;;8.98;3.25;;;6.00;99.90;;;;;;2257398;26;20071;-70
2024/04/17 02:47:24;;;;;;;6.40;2.78;;;6.00;99.90;;;;;;2262071;26;20001;-69
2024/04/17 02:48:24;;;;;;;8.82;2.85;;;6.00;99.90;;;;;;2257426;26;20557;-69
2024/04/17 02:49:25;;;;;;;8.40;3.15;;;6.00;99.90;;;;;;2260637;26;20106;-69
2024/04/17 02:50:26;;;;;;;7.53;3.03;;;6.00;99.90;;;;;;2259592;26;20006;-70
2024/04/17 02:51:26;;;;;;;9.02;3.08;;;5.90;99.90;;;;;;2257801;26;20009;-70
2024/04/17 02:52:27;;;;;;;8.75;3.28;;;5.90;99.90;;;;;;2264770;26;19994;-70
2024/04/17 02:53:27;;;;;;;8.85;2.88;;;5.90;99.90;;;;;;2257304;26;19995;-70
2024/04/17 02:54:28;;;;;;;10.45;3.15;;;5.90;99.90;;;;;;2260852;26;20080;-69
2024/04/17 02:55:28;;;;;;;10.98;3.22;;;5.90;99.90;;;;;;2246442;26;20061;-67
2024/04/17 02:56:29;;;;;;;9.55;2.90;;;5.90;99.90;;;;;;2245898;26;20051;-70
2024/04/17 02:57:29;;;;;;;8.27;3.22;;;5.80;99.90;;;;;;2260845;26;20074;-69
2024/04/17 02:58:30;;;;;;;7.72;3.30;;;5.80;99.90;;;;;;2256575;26;20001;-69
2024/04/17 02:59:30;;;;;;;9.93;3.45;;;5.80;99.90;;;;;;2258307;26;20066;-69
2024/04/17 03:00:31;;;;;;;12.43;3.88;;;5.80;99.90;;;;;;2262361;26;20096;-70
2024/04/17 03:01:31;;;;;;;7.88;3.30;;;5.80;99.90;;;;;;2263083;26;19990;-70
2024/04/17 03:02:32;;;;;;;7.43;3.50;;;5.80;99.90;;;;;;2259321;26;20094;-69
2024/04/17 03:03:32;;;;;;;8.80;3.13;;;5.80;99.90;;;;;;2262829;26;20009;-69
2024/04/17 03:04:33;;;;;;;3.97;3.10;;;5.70;99.90;;;;;;2262487;26;20010;-69
2024/04/17 03:05:34;;;;;;;8.63;4.25;;;5.70;99.90;;;;;;2260318;26;19990;-70
2024/04/17 03:06:34;;;;;;;8.73;3.28;;;5.80;99.90;;;;;;2258802;26;20463;-69
2024/04/17 03:07:35;;;;;;;9.27;2.97;;;5.70;99.90;;;;;;2258532;26;19998;-70
2024/04/17 03:08:35;;;;;;;10.20;3.30;;;5.70;99.90;;;;;;2262446;26;20021;-69
2024/04/17 03:09:36;;;;;;;7.30;3.20;;;5.70;99.90;;;;;;2257689;26;20330;-69
2024/04/17 03:10:36;;;;;;;7.65;3.05;;;5.70;99.90;;;;;;2259229;26;20346;-69
2024/04/17 03:11:37;;;;;;;7.10;3.90;;;5.70;99.90;;;;;;2258947;26;19998;-70
2024/04/17 03:12:37;;;;;;;7.90;3.25;;;5.70;99.90;;;;;;2260093;26;20055;-69
2024/04/17 03:13:38;;;;;;;7.28;3.50;;;5.70;99.90;;;;;;2262250;26;20013;-69
2024/04/17 03:14:38;;;;;;;6.53;3.20;;;5.70;99.90;;;;;;2259083;26;20013;-69
2024/04/17 03:15:39;;;;;;;8.77;3.08;;;5.70;99.90;;;;;;2257938;26;20421;-69
2024/04/17 03:16:39;;;;;;;6.97;2.92;;;5.60;99.90;;;;;;2260548;26;20570;-69
2024/04/17 03:17:40;;;;;;;9.50;3.92;;;5.60;99.90;;;;;;2259702;26;20996;-69
2024/04/17 03:18:40;;;;;;;7.53;3.30;;;5.60;99.90;;;;;;2261988;26;20003;-69
2024/04/17 03:19:41;;;;;;;7.00;3.08;;;5.60;99.90;;;;;;2261278;26;20010;-69
2024/04/17 03:20:42;;;;;;;6.10;3.15;;;5.60;99.90;;;;;;2258797;26;20013;-69
2024/04/17 03:21:42;;;;;;;7.55;3.50;;;5.60;99.90;;;;;;2262222;26;20002;-68
2024/04/17 03:22:42;;;;;;;9.88;3.45;;;5.60;99.90;;;;;;2259878;26;20467;-69
2024/04/17 03:23:43;;;;;;;6.18;3.08;;;5.50;99.90;;;;;;2248087;26;20553;-68
2024/04/17 03:24:44;;;;;;;11.48;3.85;;;5.50;99.90;;;;;;2248262;26;20524;-69
2024/04/17 03:25:57;;;;;;;7.95;3.90;;;5.60;99.90;;;;;;2258953;26;20034;-69
2024/04/17 03:26:57;;;;;;;7.75;3.30;;;5.50;99.90;;;;;;2259685;26;20439;-69
2024/04/17 03:27:58;;;;;;;6.88;3.40;;;5.50;99.90;;;;;;2263269;26;20013;-69
2024/04/17 03:28:58;;;;;;;8.52;3.30;;;5.50;99.90;;;;;;2259990;26;20024;-69
2024/04/17 03:29:59;;;;;;;7.15;3.33;;;5.50;99.90;;;;;;2261243;26;20362;-69
2024/04/17 03:31:00;;;;;;;10.18;3.60;;;5.40;99.90;;;;;;2261052;26;20008;-69
2024/04/17 03:32:04;;;;;;;6.00;3.25;;;5.50;99.90;;;;;;2258348;26;20065;-69
2024/04/17 03:33:04;;;;;;;9.63;4.25;;;5.40;99.90;;;;;;2261920;26;20069;-69
2024/04/17 03:34:05;;;;;;;7.43;3.00;;;5.40;99.90;;;;;;2259606;26;20107;-69
2024/04/17 03:35:07;;;;;;;7.95;3.53;;;5.40;99.90;;;;;;2258866;26;20092;-69
2024/04/17 03:36:08;;;;;;;8.20;3.42;;;5.40;99.90;;;;;;2259944;26;19994;-69
2024/04/17 03:37:09;;;;;;;8.07;3.55;;;5.40;99.90;;;;;;2259096;26;20003;-70
2024/04/17 03:38:10;;;;;;;5.57;2.80;;;5.40;99.90;;;;;;2258127;26;21145;-69
2024/04/17 03:39:10;;;;;;;7.18;3.38;;;5.40;99.90;;;;;;2260506;26;20347;-69
2024/04/17 03:40:12;;;;;;;8.73;3.35;;;5.30;99.90;;;;;;2258430;26;19999;-69
2024/04/17 03:41:12;;;;;;;10.70;3.75;;;5.30;99.90;;;;;;2241812;26;19999;-69
2024/04/17 03:42:13;;;;;;;5.57;3.05;;;5.30;99.90;;;;;;2242937;26;20455;-68
2024/04/17 03:43:13;;;;;;;10.88;3.28;;;5.30;99.90;;;;;;2258620;26;20031;-69
2024/04/17 03:44:14;;;;;;;9.05;3.75;;;5.30;99.90;;;;;;2259797;26;20458;-69
2024/04/17 03:45:14;;;;;;;6.13;2.70;;;5.30;99.90;;;;;;2257961;26;20363;-69
2024/04/17 03:46:15;;;;;;;8.30;3.58;;;5.30;99.90;;;;;;2260751;26;20405;-69
2024/04/17 03:47:15;;;;;;;6.05;3.38;;;5.20;99.90;;;;;;2243631;26;20655;-69
2024/04/17 03:48:16;;;;;;;6.82;3.65;;;5.20;99.90;;;;;;2244500;26;20690;-69
2024/04/17 03:49:16;;;;;;;10.88;4.07;;;5.20;99.90;;;;;;2260156;26;20473;-69
2024/04/17 03:50:17;;;;;;;10.35;4.25;;;5.20;99.90;;;;;;2261099;26;20006;-69
2024/04/17 03:51:18;;;;;;;9.13;3.38;;;5.20;99.90;;;;;;2264582;26;20048;-69
2024/04/17 03:52:18;;;;;;;8.32;3.40;;;5.20;99.90;;;;;;2249270;26;20010;-69
2024/04/17 03:53:19;;;;;;;10.57;3.90;;;5.20;99.90;;;;;;2235216;26;20049;-68
2024/04/17 03:54:19;;;;;;;8.13;3.83;;;5.20;99.90;;;;;;2245323;26;20018;-69
2024/04/17 03:55:19;;;;;;;6.30;3.58;;;5.20;99.90;;;;;;2264873;26;19998;-69
2024/04/17 03:56:20;;;;;;;7.88;4.25;;;5.20;99.90;;;;;;2260997;26;20009;-68
2024/04/17 03:57:21;;;;;;;9.35;3.95;;;5.20;99.90;;;;;;2260489;26;20013;-69
2024/04/17 03:58:21;;;;;;;6.28;3.78;;;5.20;99.90;;;;;;2260437;26;20076;-69
2024/04/17 03:59:22;;;;;;;9.10;4.10;;;5.20;99.90;;;;;;2259183;26;20076;-70
2024/04/17 04:00:22;;;;;;;8.05;4.18;;;5.10;99.90;;;;;;2253900;26;19998;-68
2024/04/17 04:01:23;;;;;;;9.93;4.15;;;5.20;99.90;;;;;;2245437;26;20014;-69
2024/04/17 04:02:24;;;;;;;7.55;3.55;;;5.10;99.90;;;;;;2242719;26;20000;-70
2024/04/17 04:03:24;;;;;;;10.98;4.20;;;5.10;99.90;;;;;;2260732;26;20013;-70
2024/04/17 04:04:25;;;;;;;6.47;3.80;;;5.10;99.90;;;;;;2258224;26;20517;-69
2024/04/17 04:05:25;;;;;;;10.77;3.85;;;5.10;99.90;;;;;;2258114;26;20017;-69
2024/04/17 04:06:26;;;;;;;7.22;3.80;;;5.10;99.90;;;;;;2261109;26;20099;-69
2024/04/17 04:07:26;;;;;;;7.63;3.72;;;5.10;99.90;;;;;;2262372;26;20010;-69
2024/04/17 04:08:27;;;;;;;9.60;3.95;;;5.10;99.90;;;;;;2241851;26;20015;-69
2024/04/17 04:09:27;;;;;;;10.25;4.15;;;5.10;99.90;;;;;;2244334;26;19999;-69
2024/04/17 04:10:28;;;;;;;10.43;3.72;;;5.10;99.90;;;;;;2262337;26;20033;-69
2024/04/17 04:11:28;;;;;;;8.13;4.20;;;5.00;99.90;;;;;;2258337;26;20454;-69
2024/04/17 04:12:29;;;;;;;8.45;4.00;;;5.00;99.90;;;;;;2261340;26;20029;-69
2024/04/17 04:13:29;;;;;;;10.13;4.13;;;5.00;99.90;;;;;;2260828;26;20010;-69
2024/04/17 04:14:30;;;;;;;8.23;3.90;;;5.00;99.90;;;;;;2256426;26;20002;-69
2024/04/17 04:15:31;;;;;;;7.50;3.65;;;5.00;99.90;;;;;;2258813;26;20006;-69
2024/04/17 04:16:34;;;;;;;10.80;4.05;;;5.00;99.90;;;;;;2261833;26;20148;-69
2024/04/17 04:17:34;;;;;;;8.95;4.65;;;5.00;99.90;;;;;;2261637;26;20060;-68
2024/04/17 04:18:35;;;;;;;10.35;3.95;;;5.00;99.90;;;;;;2261594;26;20074;-68
2024/04/17 04:19:35;;;;;;;10.20;4.25;;;5.00;99.90;;;;;;2257025;26;20010;-69
2024/04/17 04:20:36;;;;;;;9.75;3.90;;;5.00;99.90;;;;;;2260069;26;19998;-69
2024/04/17 04:21:37;;;;;;;9.73;3.95;;;4.90;99.90;;;;;;2261419;26;20034;-69
2024/04/17 04:22:37;;;;;;;11.43;3.72;;;5.00;99.90;;;;;;2257595;26;20031;-69
2024/04/17 04:23:38;;;;;;;9.13;3.80;;;4.90;99.90;;;;;;2259372;26;20467;-69
2024/04/17 04:24:40;;;;;;;6.68;3.83;;;4.90;99.90;;;;;;2262288;26;19995;-69
2024/04/17 04:25:41;;;;;;;8.40;3.45;;;4.90;99.90;;;;;;2258849;26;20003;-69
2024/04/17 04:26:42;;;;;;;6.78;3.65;;;4.90;99.90;;;;;;2244054;26;20000;-69
2024/04/17 04:27:42;;;;;;;9.98;3.40;;;4.90;99.90;;;;;;2229395;26;20007;-68
2024/04/17 04:28:46;;;;;;;6.60;3.72;;;4.90;99.90;;;;;;2242081;26;20490;-68
2024/04/17 04:29:47;;;;;;;10.80;5.10;;;4.90;99.90;;;;;;2259281;26;20014;-69
2024/04/17 04:30:47;;;;;;;11.07;3.70;;;4.90;99.90;;;;;;2242584;26;20456;-69
2024/04/17 04:31:48;;;;;;;10.45;4.55;;;4.90;99.90;;;;;;2243155;26;20000;-69
2024/04/17 04:32:48;;;;;;;11.30;3.78;;;5.00;99.90;;;;;;2258766;26;20009;-68
2024/04/17 04:33:49;;;;;;;7.32;4.03;;;5.00;99.90;;;;;;2259844;26;19998;-69
2024/04/17 04:34:49;;;;;;;12.48;4.07;;;4.90;99.90;;;;;;2262930;26;19999;-70
2024/04/17 04:35:50;;;;;;;11.23;4.53;;;4.90;99.90;;;;;;2262137;26;19998;-71
2024/04/17 04:36:51;;;;;;;9.23;3.90;;;4.90;99.90;;;;;;2259198;26;20005;-70
2024/04/17 04:37:51;;;;;;;6.22;3.53;;;4.90;99.90;;;;;;2262597;26;19998;-71
2024/04/17 04:38:52;;;;;;;7.20;3.67;;;4.90;99.90;;;;;;2257272;26;20003;-70
2024/04/17 04:39:52;;;;;;;9.32;3.70;;;4.90;99.90;;;;;;2256312;26;20074;-70
2024/04/17 04:40:53;;;;;;;10.10;3.58;;;4.90;99.90;;;;;;2261634;26;19991;-70
2024/04/17 04:41:53;;;;;;;10.52;4.05;;;4.90;99.90;;;;;;2257707;26;20496;-69
2024/04/17 04:42:54;;;;;;;6.55;3.85;;;4.90;99.90;;;;;;2244728;26;19998;-69
2024/04/17 04:43:54;;;;;;;11.35;4.20;;;4.90;99.90;;;;;;2243820;26;20064;-69
2024/04/17 04:44:55;;;;;;;9.63;4.28;;;4.90;99.90;;;;;;2257814;26;20149;-70
2024/04/17 04:45:56;;;;;;;10.18;4.18;;;4.90;99.90;;;;;;2261020;26;20082;-70
2024/04/17 04:46:57;;;;;;;10.85;4.05;;;4.90;99.90;;;;;;2259424;26;20046;-70
2024/04/17 04:47:58;;;;;;;6.45;3.50;;;4.90;99.90;;;;;;2256579;26;19998;-70
2024/04/17 04:48:58;;;;;;;8.95;3.70;;;4.90;99.90;;;;;;2256815;26;19991;-70
2024/04/17 04:49:59;;;;;;;7.90;3.60;;;4.90;99.90;;;;;;2257964;26;20001;-70
2024/04/17 04:51:00;;;;;;;9.57;3.88;;;4.90;99.90;;;;;;2256845;26;20035;-69
2024/04/17 04:52:00;;;;;;;7.43;4.25;;;4.90;99.90;;;;;;2260124;26;20035;-70
2024/04/17 04:53:01;;;;;;;9.52;3.83;;;4.90;99.90;;;;;;2261229;26;20569;-70
2024/04/17 04:54:01;;;;;;;7.78;4.00;;;4.90;99.90;;;;;;2260858;26;20373;-70
2024/04/17 04:55:04;;;;;;;6.68;3.60;;;4.90;99.90;;;;;;2262510;26;20008;-70
2024/04/17 04:56:05;;;;;;;7.93;3.53;;;5.00;99.90;;;;;;2261517;26;20039;-70
2024/04/17 04:57:06;;;;;;;11.95;4.18;;;4.90;99.90;;;;;;2259570;26;20002;-70
2024/04/17 04:58:06;;;;;;;7.53;3.92;;;4.90;99.90;;;;;;2261804;26;20004;-70
2024/04/17 04:59:07;;;;;;;13.70;4.30;;;5.00;99.90;;;;;;2256734;26;20046;-72
2024/04/17 05:00:08;;;;;;;8.48;3.97;;;5.00;99.90;;;;;;2259325;26;20067;-70
2024/04/17 05:01:09;;;;;;;9.43;3.65;;;5.00;99.90;;;;;;2259562;26;20363;-70
2024/04/17 05:02:09;;;;;;;7.00;3.53;;;5.00;99.90;;;;;;2258595;26;20013;-70
2024/04/17 05:03:10;;;;;;;9.18;4.00;;;5.00;99.90;;;;;;2244137;26;20073;-70
2024/04/17 05:04:10;;;;;;;7.45;3.53;;;5.00;99.90;;;;;;2230124;26;20045;-69
2024/04/17 05:05:11;;;;;;;8.95;4.13;;;5.00;99.90;;;;;;2246854;26;20056;-72
2024/04/17 05:06:11;;;;;;;14.73;5.07;;;5.00;99.90;;;;;;2259341;26;20009;-70
2024/04/17 05:07:12;;;;;;;10.68;4.03;;;5.00;99.90;;;;;;2259066;26;19995;-70
2024/04/17 05:08:13;;;;;;;9.95;4.25;;;5.00;99.90;;;;;;2257969;26;20013;-70
2024/04/17 05:09:13;;;;;;;12.05;5.03;;;5.00;99.90;;;;;;2258483;26;20605;-70
2024/04/17 05:10:14;;;;;;;10.95;4.68;;;5.10;99.90;;;;;;2261504;26;20002;-70
2024/04/17 05:11:14;;;;;;;10.07;4.50;;;5.10;99.90;;;;;;2247556;26;20014;-70
2024/04/17 05:12:15;;;;;;;7.97;4.32;;;5.10;99.90;;;;;;2251322;26;20009;-70
2024/04/17 05:13:15;;;;;;;7.32;3.88;;;5.10;99.90;;;;;;2258790;26;19999;-69
2024/04/17 05:14:16;;;;;;;7.35;4.18;;;5.10;99.90;;;;;;2258260;26;20029;-70
2024/04/17 05:15:16;;;;;;;7.75;4.18;;;5.10;99.90;;;;;;2261661;26;20070;-70
2024/04/17 05:16:17;;;;;;;7.68;4.18;;;5.10;99.90;;;;;;2246577;26;20017;-70
2024/04/17 05:17:18;;;;;;;8.40;3.95;;;5.10;99.90;;;;;;2235241;26;20021;-69
2024/04/17 05:18:18;;;;;;;11.23;4.32;;;5.10;99.90;;;;;;2250642;26;19995;-70
2024/04/17 05:19:22;;;;;;;7.82;4.85;;;5.10;99.90;;;;;;2246169;26;20052;-70